Nikata — 2IXB8 — position and weather

sailwx.info

Track history (hours):
 
Tides and Currents Weather Stations Pressure Air Temp Water Temp Dewpoint Dewpoint Depression Visibility Wind Speed Wind Dir Waves Ship Positions

Nikata

Last reported at 2018-Jun-05 17:56 UTC. Time now 2018-Jul-21 17:37 UTC.
Position N 37°53' E 015°51'.
Warning: this ship's position is 45 days out of date.

Length 35 m; draft 6 m.

Type: Sailing vessel. MMSI: 235113489.

Date/timePositionNaut miles runAvg speedWind from/ knotsBaromVisibWave heightAir tempDewpointWater temp
2018-Jun-05 17:56N 37°53' E 015°51'5 9.3
2018-Jun-05 17:24N 37°53' E 015°45'4 9.0
2018-Jun-05 17:00N 37°55' E 015°41'3 6.0
2018-Jun-05 16:29N 37°57' E 015°38'5 9.9
2018-Jun-05 15:59N 38°01' E 015°35'5 9.8
2018-Jun-05 15:30N 38°06' E 015°35'510.7
2018-Jun-05 15:00N 38°11' E 015°35'7 9.5
2018-Jun-05 14:19N 38°17' E 015°40'311.0
2018-Jun-05 14:00N 38°19' E 015°36'510.8
2018-Jun-05 13:30N 38°18' E 015°29'510.6
2018-Jun-05 13:00N 38°16' E 015°23'5 9.6
2018-Jun-05 12:30N 38°14' E 015°17'2 3.6
2018-Jun-05 11:57N 38°13' E 015°15'0 0.0
2018-Jun-05 11:31N 38°13' E 015°15'0 0.0
2018-Jun-05 11:01N 38°13' E 015°15'0 0.0
2018-Jun-05 10:31N 38°13' E 015°15'0 0.0
2018-Jun-05 10:01N 38°13' E 015°15'0 0.0
2018-Jun-05 09:31N 38°13' E 015°15'0 0.4
2018-Jun-05 09:01N 38°13' E 015°15'4 7.8
2018-Jun-05 08:30N 38°17' E 015°13'5 9.8
2018-Jun-05 08:01N 38°16' E 015°07'5 9.3
2018-Jun-05 07:30N 38°16' E 015°01'5 9.5
2018-Jun-05 07:01N 38°17' E 014°55'5 9.5
2018-Jun-05 06:30N 38°17' E 014°49'7 9.3
2018-Jun-05 05:43N 38°17' E 014°40'24 9.4
2018-Jun-05 03:08N 38°17' E 014°09'1 9.5
2018-Jun-05 02:59N 38°18' E 014°07'5 9.3
2018-Jun-05 02:30N 38°17' E 014°01'5 9.4
2018-Jun-05 02:00N 38°17' E 013°55'5 9.5
2018-Jun-05 01:30N 38°17' E 013°49'5 9.4
2018-Jun-05 01:00N 38°17' E 013°43'5 9.2
2018-Jun-05 00:30N 38°17' E 013°38'5 9.3
2018-Jun-05 00:00N 38°17' E 013°32'5 9.4
2018-Jun-04 23:30N 38°17' E 013°26'5 9.8
2018-Jun-04 23:00N 38°17' E 013°19'5 9.8
2018-Jun-04 22:30N 38°16' E 013°13'5 9.1
2018-Jun-04 22:00N 38°16' E 013°07'4 8.8
2018-Jun-04 21:30N 38°15' E 013°02'4 8.7
2018-Jun-04 21:00N 38°15' E 012°56'4 8.6
2018-Jun-04 20:30N 38°14' E 012°51'  
2018-Jun-02 14:40N 37°57' E 012°17'  
2018-May-29 04:09N 38°12' E 012°40'1 8.6
2018-May-29 04:00N 38°13' E 012°41'6 8.2
2018-May-29 03:13N 38°14' E 012°49'2 8.7
2018-May-29 03:00N 38°14' E 012°51'4 8.6
2018-May-29 02:30N 38°15' E 012°57'4 8.5
2018-May-29 02:00N 38°16' E 013°02'4 8.4
2018-May-29 01:30N 38°16' E 013°07'4 8.5
2018-May-29 01:00N 38°17' E 013°13'4 8.2
2018-May-29 00:30N 38°17' E 013°18'4 8.1
2018-May-29 00:00N 38°18' E 013°23'4 8.5
2018-May-28 23:30N 38°18' E 013°28'4 8.8
2018-May-28 23:00N 38°18' E 013°34'5 9.0
2018-May-28 22:30N 38°18' E 013°40'5 9.0
2018-May-28 22:00N 38°18' E 013°45'5 9.5
2018-May-28 21:30N 38°18' E 013°52'5 9.6
2018-May-28 21:00N 38°18' E 013°58'5 9.4
2018-May-28 20:30N 38°19' E 014°04'10 9.2
2018-May-28 19:23N 38°19' E 014°17'4 9.2
2018-May-28 19:00N 38°18' E 014°21'5 9.6
2018-May-28 18:30N 38°18' E 014°27'510.1
2018-May-28 18:00N 38°17' E 014°34'510.1
2018-May-28 17:30N 38°18' E 014°40'510.0
2018-May-28 17:00N 38°18' E 014°47'5 9.9
2018-May-28 16:30N 38°18' E 014°53'5 9.7
2018-May-28 16:00N 38°17' E 014°59'5 9.5
2018-May-28 15:30N 38°17' E 015°05'4 9.2
2018-May-28 15:00N 38°17' E 015°11'4 8.4
2018-May-28 14:30N 38°15' E 015°16'2 4.3
2018-May-28 14:00N 38°13' E 015°15'0 0.0
2018-May-28 13:30N 38°13' E 015°15'0 0.0
2018-May-28 13:00N 38°13' E 015°15'0 0.0
2018-May-28 12:30N 38°13' E 015°15'0 0.0
2018-May-28 12:00N 38°13' E 015°15'0 0.0
2018-May-28 11:30N 38°13' E 015°15'0 0.0
2018-May-28 11:00N 38°13' E 015°15'0 0.1
2018-May-28 10:30N 38°13' E 015°15'0 0.0
2018-May-28 10:00N 38°13' E 015°15'0 0.0
2018-May-28 09:30N 38°13' E 015°15'0 0.0
2018-May-28 09:00N 38°13' E 015°15'0 0.0
2018-May-28 08:30N 38°13' E 015°15'0 0.0
2018-May-28 08:00N 38°13' E 015°15'0 0.0
2018-May-28 07:30N 38°13' E 015°15'0 0.0
2018-May-28 07:00N 38°13' E 015°15'0 0.1
2018-May-28 06:30N 38°13' E 015°15'0 0.0
2018-May-28 06:00N 38°13' E 015°15'0 0.0
2018-May-28 05:30N 38°13' E 015°15'0 0.0
2018-May-28 05:00N 38°13' E 015°15'0 0.0
2018-May-28 04:30N 38°13' E 015°15'0 0.0
2018-May-28 04:00N 38°13' E 015°15'0 0.0
2018-May-28 03:30N 38°13' E 015°15'0 0.0
2018-May-28 03:00N 38°13' E 015°15'0 0.0
2018-May-28 02:30N 38°13' E 015°15'0 0.0
2018-May-28 02:00N 38°13' E 015°15'0 0.0
2018-May-28 01:30N 38°13' E 015°15'0 0.0
2018-May-28 01:00N 38°13' E 015°15'0 0.0
2018-May-28 00:30N 38°13' E 015°15'0 0.0
2018-May-28 00:00N 38°13' E 015°15'0 0.1
2018-May-27 23:30N 38°13' E 015°15'0 0.0
2018-May-27 23:00N 38°13' E 015°15'0 0.0
2018-May-27 22:30N 38°13' E 015°15'0 0.0
2018-May-27 22:00N 38°13' E 015°15'0 0.0
2018-May-27 21:30N 38°13' E 015°15'0 0.0
2018-May-27 21:00N 38°13' E 015°15'0 0.0
2018-May-27 20:24N 38°13' E 015°15'0 0.0
2018-May-27 20:00N 38°13' E 015°15'0 0.0
2018-May-27 19:30N 38°13' E 015°15'0 0.0
2018-May-27 19:00N 38°13' E 015°15'0 0.0
2018-May-27 18:30N 38°13' E 015°15'0 0.0
2018-May-27 18:00N 38°13' E 015°15'0 0.0
2018-May-27 17:30N 38°13' E 015°15'0 0.0
2018-May-27 17:00N 38°13' E 015°15'0 0.0
2018-May-27 16:30N 38°13' E 015°15'0 0.0
2018-May-27 16:00N 38°13' E 015°15'0 0.0
2018-May-27 15:30N 38°13' E 015°15'0 0.0
2018-May-27 15:00N 38°13' E 015°15'0 0.0
2018-May-27 14:30N 38°13' E 015°15'1 2.7
2018-May-27 14:00N 38°14' E 015°16'5 8.8
2018-May-27 13:28N 38°18' E 015°12'4 9.3
2018-May-27 12:59N 38°20' E 015°06'4 7.8
2018-May-27 12:30N 38°21' E 015°02'2 1.0
2018-May-27 10:32N 38°22' E 014°60'0 0.2
2018-May-27 10:26N 38°22' E 014°60'0 0.0
2018-May-27 09:44N 38°22' E 014°60'0 0.0
2018-May-27 09:30N 38°22' E 014°60'2 4.3
2018-May-27 08:59N 38°23' E 014°57'  
Track history (hours):
 
Tides and Currents Weather Stations Pressure Air Temp Water Temp Dewpoint Dewpoint Depression Visibility Wind Speed Wind Dir Waves Ship Positions

Nikata

Last reported at 2018-Jun-05 17:56 UTC. Time now 2018-Jul-21 17:37 UTC.
Position N 37°53' E 015°51'.
Warning: this ship's position is 45 days out of date.

Length 35 m; draft 6 m.

Type: Sailing vessel. MMSI: 235113489.

Date/timePositionNaut miles runAvg speedWind from/ knotsBaromVisibWave heightAir tempDewpointWater temp
2018-Jun-05 17:56N 37°53' E 015°51'5 9.3
2018-Jun-05 17:24N 37°53' E 015°45'4 9.0
2018-Jun-05 17:00N 37°55' E 015°41'3 6.0
2018-Jun-05 16:29N 37°57' E 015°38'5 9.9
2018-Jun-05 15:59N 38°01' E 015°35'5 9.8
2018-Jun-05 15:30N 38°06' E 015°35'510.7
2018-Jun-05 15:00N 38°11' E 015°35'7 9.5
2018-Jun-05 14:19N 38°17' E 015°40'311.0
2018-Jun-05 14:00N 38°19' E 015°36'510.8
2018-Jun-05 13:30N 38°18' E 015°29'510.6
2018-Jun-05 13:00N 38°16' E 015°23'5 9.6
2018-Jun-05 12:30N 38°14' E 015°17'2 3.6
2018-Jun-05 11:57N 38°13' E 015°15'0 0.0
2018-Jun-05 11:31N 38°13' E 015°15'0 0.0
2018-Jun-05 11:01N 38°13' E 015°15'0 0.0
2018-Jun-05 10:31N 38°13' E 015°15'0 0.0
2018-Jun-05 10:01N 38°13' E 015°15'0 0.0
2018-Jun-05 09:31N 38°13' E 015°15'0 0.4
2018-Jun-05 09:01N 38°13' E 015°15'4 7.8
2018-Jun-05 08:30N 38°17' E 015°13'5 9.8
2018-Jun-05 08:01N 38°16' E 015°07'5 9.3
2018-Jun-05 07:30N 38°16' E 015°01'5 9.5
2018-Jun-05 07:01N 38°17' E 014°55'5 9.5
2018-Jun-05 06:30N 38°17' E 014°49'7 9.3
2018-Jun-05 05:43N 38°17' E 014°40'24 9.4
2018-Jun-05 03:08N 38°17' E 014°09'1 9.5
2018-Jun-05 02:59N 38°18' E 014°07'5 9.3
2018-Jun-05 02:30N 38°17' E 014°01'5 9.4
2018-Jun-05 02:00N 38°17' E 013°55'5 9.5
2018-Jun-05 01:30N 38°17' E 013°49'5 9.4
2018-Jun-05 01:00N 38°17' E 013°43'5 9.2
2018-Jun-05 00:30N 38°17' E 013°38'5 9.3
2018-Jun-05 00:00N 38°17' E 013°32'5 9.4
2018-Jun-04 23:30N 38°17' E 013°26'5 9.8
2018-Jun-04 23:00N 38°17' E 013°19'5 9.8
2018-Jun-04 22:30N 38°16' E 013°13'5 9.1
2018-Jun-04 22:00N 38°16' E 013°07'4 8.8
2018-Jun-04 21:30N 38°15' E 013°02'4 8.7
2018-Jun-04 21:00N 38°15' E 012°56'4 8.6
2018-Jun-04 20:30N 38°14' E 012°51'  
2018-Jun-02 14:40N 37°57' E 012°17'  
2018-May-29 04:09N 38°12' E 012°40'1 8.6
2018-May-29 04:00N 38°13' E 012°41'6 8.2
2018-May-29 03:13N 38°14' E 012°49'2 8.7
2018-May-29 03:00N 38°14' E 012°51'4 8.6
2018-May-29 02:30N 38°15' E 012°57'4 8.5
2018-May-29 02:00N 38°16' E 013°02'4 8.4
2018-May-29 01:30N 38°16' E 013°07'4 8.5
2018-May-29 01:00N 38°17' E 013°13'4 8.2
2018-May-29 00:30N 38°17' E 013°18'4 8.1
2018-May-29 00:00N 38°18' E 013°23'4 8.5
2018-May-28 23:30N 38°18' E 013°28'4 8.8
2018-May-28 23:00N 38°18' E 013°34'5 9.0
2018-May-28 22:30N 38°18' E 013°40'5 9.0
2018-May-28 22:00N 38°18' E 013°45'5 9.5
2018-May-28 21:30N 38°18' E 013°52'5 9.6
2018-May-28 21:00N 38°18' E 013°58'5 9.4
2018-May-28 20:30N 38°19' E 014°04'10 9.2
2018-May-28 19:23N 38°19' E 014°17'4 9.2
2018-May-28 19:00N 38°18' E 014°21'5 9.6
2018-May-28 18:30N 38°18' E 014°27'510.1
2018-May-28 18:00N 38°17' E 014°34'510.1
2018-May-28 17:30N 38°18' E 014°40'510.0
2018-May-28 17:00N 38°18' E 014°47'5 9.9
2018-May-28 16:30N 38°18' E 014°53'5 9.7
2018-May-28 16:00N 38°17' E 014°59'5 9.5
2018-May-28 15:30N 38°17' E 015°05'4 9.2
2018-May-28 15:00N 38°17' E 015°11'4 8.4
2018-May-28 14:30N 38°15' E 015°16'2 4.3
2018-May-28 14:00N 38°13' E 015°15'0 0.0
2018-May-28 13:30N 38°13' E 015°15'0 0.0
2018-May-28 13:00N 38°13' E 015°15'0 0.0
2018-May-28 12:30N 38°13' E 015°15'0 0.0
2018-May-28 12:00N 38°13' E 015°15'0 0.0
2018-May-28 11:30N 38°13' E 015°15'0 0.0
2018-May-28 11:00N 38°13' E 015°15'0 0.1
2018-May-28 10:30N 38°13' E 015°15'0 0.0
2018-May-28 10:00N 38°13' E 015°15'0 0.0
2018-May-28 09:30N 38°13' E 015°15'0 0.0
2018-May-28 09:00N 38°13' E 015°15'0 0.0
2018-May-28 08:30N 38°13' E 015°15'0 0.0
2018-May-28 08:00N 38°13' E 015°15'0 0.0
2018-May-28 07:30N 38°13' E 015°15'0 0.0
2018-May-28 07:00N 38°13' E 015°15'0 0.1
2018-May-28 06:30N 38°13' E 015°15'0 0.0
2018-May-28 06:00N 38°13' E 015°15'0 0.0
2018-May-28 05:30N 38°13' E 015°15'0 0.0
2018-May-28 05:00N 38°13' E 015°15'0 0.0
2018-May-28 04:30N 38°13' E 015°15'0 0.0
2018-May-28 04:00N 38°13' E 015°15'0 0.0
2018-May-28 03:30N 38°13' E 015°15'0 0.0
2018-May-28 03:00N 38°13' E 015°15'0 0.0
2018-May-28 02:30N 38°13' E 015°15'0 0.0
2018-May-28 02:00N 38°13' E 015°15'0 0.0
2018-May-28 01:30N 38°13' E 015°15'0 0.0
2018-May-28 01:00N 38°13' E 015°15'0 0.0
2018-May-28 00:30N 38°13' E 015°15'0 0.0
2018-May-28 00:00N 38°13' E 015°15'0 0.1
2018-May-27 23:30N 38°13' E 015°15'0 0.0
2018-May-27 23:00N 38°13' E 015°15'0 0.0
2018-May-27 22:30N 38°13' E 015°15'0 0.0
2018-May-27 22:00N 38°13' E 015°15'0 0.0
2018-May-27 21:30N 38°13' E 015°15'0 0.0
2018-May-27 21:00N 38°13' E 015°15'0 0.0
2018-May-27 20:24N 38°13' E 015°15'0 0.0
2018-May-27 20:00N 38°13' E 015°15'0 0.0
2018-May-27 19:30N 38°13' E 015°15'0 0.0
2018-May-27 19:00N 38°13' E 015°15'0 0.0
2018-May-27 18:30N 38°13' E 015°15'0 0.0
2018-May-27 18:00N 38°13' E 015°15'0 0.0
2018-May-27 17:30N 38°13' E 015°15'0 0.0
2018-May-27 17:00N 38°13' E 015°15'0 0.0
2018-May-27 16:30N 38°13' E 015°15'0 0.0
2018-May-27 16:00N 38°13' E 015°15'0 0.0
2018-May-27 15:30N 38°13' E 015°15'0 0.0
2018-May-27 15:00N 38°13' E 015°15'0 0.0
2018-May-27 14:30N 38°13' E 015°15'1 2.7
2018-May-27 14:00N 38°14' E 015°16'5 8.8
2018-May-27 13:28N 38°18' E 015°12'4 9.3
2018-May-27 12:59N 38°20' E 015°06'4 7.8
2018-May-27 12:30N 38°21' E 015°02'2 1.0
2018-May-27 10:32N 38°22' E 014°60'0 0.2
2018-May-27 10:26N 38°22' E 014°60'0 0.0
2018-May-27 09:44N 38°22' E 014°60'0 0.0
2018-May-27 09:30N 38°22' E 014°60'2 4.3
2018-May-27 08:59N 38°23' E 014°57'  

Dump ship's entire track history